Time;durP1;ratioP1;P1;durP2;ratioP2;P2;SDS_P1;SDS_P2;PMS_P1;PMS_P2;Temp;Humidity;BMP_temperature;BMP_pressure;BME280_temperature;BME280_humidity;BME280_pressure;Samples;Min_cycle;Max_cycle;Signal;HPM_P1;HPM_P2
2022/05/07 00:02:17;;;;;;;31.37;26.73;;;13.80;99.90;;;;;;5054046;28;20445;-64
2022/05/07 00:04:44;;;;;;;27.17;23.07;;;13.80;99.90;;;;;;5056218;28;20527;-64
2022/05/07 00:07:11;;;;;;;33.93;26.83;;;13.90;99.90;;;;;;5055521;28;20515;-65
2022/05/07 00:09:38;;;;;;;30.57;27.27;;;13.80;99.90;;;;;;5055558;28;20534;-66
2022/05/07 00:12:08;;;;;;;32.13;25.00;;;13.90;99.90;;;;;;5056063;28;20771;-64
2022/05/07 00:14:35;;;;;;;30.63;26.37;;;13.90;99.90;;;;;;5055635;28;20984;-64
2022/05/07 00:19:47;;;;;;;28.27;24.70;;;13.90;99.90;;;;;;5053778;28;20444;-65
2022/05/07 00:22:14;;;;;;;29.77;24.07;;;13.90;99.90;;;;;;5055934;28;20531;-64
2022/05/07 00:24:41;;;;;;;31.10;26.53;;;13.80;99.90;;;;;;5055136;28;20441;-65
2022/05/07 00:27:11;;;;;;;26.10;22.97;;;13.80;99.90;;;;;;5054833;28;20476;-65
2022/05/07 00:29:38;;;;;;;29.00;22.40;;;13.80;99.90;;;;;;5055860;28;20900;-65
2022/05/07 00:32:05;;;;;;;31.70;24.47;;;13.80;99.90;;;;;;5054972;28;20963;-64
2022/05/07 00:34:32;;;;;;;25.13;21.83;;;13.80;99.90;;;;;;5055778;28;20511;-64
2022/05/07 00:36:59;;;;;;;28.40;23.43;;;13.80;99.90;;;;;;5055186;28;20425;-64
2022/05/07 00:39:26;;;;;;;26.63;23.23;;;13.70;99.90;;;;;;5055085;28;20527;-64
2022/05/07 00:41:53;;;;;;;29.77;25.70;;;13.70;99.90;;;;;;5055278;28;20888;-65
2022/05/07 00:44:22;;;;;;;28.33;24.87;;;13.70;99.90;;;;;;5054590;28;20433;-64
2022/05/07 00:46:50;;;;;;;29.80;24.20;;;13.70;99.90;;;;;;5054869;28;20992;-65
2022/05/07 00:49:19;;;;;;;28.17;22.73;;;13.70;99.90;;;;;;5053723;28;20915;-64
2022/05/07 00:51:45;;;;;;;27.30;23.90;;;13.60;99.90;;;;;;5055368;28;20528;-64
2022/05/07 00:54:12;;;;;;;27.97;24.13;;;13.70;99.90;;;;;;5054414;28;20555;-65
2022/05/07 00:56:39;;;;;;;29.17;24.40;;;13.60;99.90;;;;;;5055347;28;20527;-65
2022/05/07 00:59:07;;;;;;;29.17;22.43;;;13.60;99.90;;;;;;5054389;28;20448;-66
2022/05/07 01:01:36;;;;;;;31.40;25.17;;;13.70;99.90;;;;;;5054294;28;20460;-64
2022/05/07 01:04:03;;;;;;;27.80;24.40;;;13.70;99.90;;;;;;5054839;28;20441;-64
2022/05/07 01:06:31;;;;;;;28.87;24.00;;;13.70;99.90;;;;;;5053929;28;20647;-64
2022/05/07 01:08:58;;;;;;;27.23;23.67;;;13.70;99.90;;;;;;5054817;28;20920;-64
2022/05/07 01:11:26;;;;;;;26.30;23.60;;;13.70;99.90;;;;;;5053049;28;20433;-64
2022/05/07 01:13:54;;;;;;;25.63;22.83;;;13.70;99.90;;;;;;5053555;28;20867;-64
2022/05/07 01:16:21;;;;;;;26.77;23.60;;;13.80;99.90;;;;;;5053907;28;20469;-64
2022/05/07 01:18:49;;;;;;;25.40;21.80;;;13.80;99.90;;;;;;5054662;28;20524;-64
2022/05/07 01:21:18;;;;;;;27.33;22.63;;;13.80;99.90;;;;;;5054221;28;20531;-65
2022/05/07 01:23:47;;;;;;;27.47;22.90;;;13.80;99.90;;;;;;5054784;28;20821;-64
2022/05/07 01:26:16;;;;;;;23.53;20.40;;;13.70;99.90;;;;;;5053221;28;20433;-64
2022/05/07 01:28:44;;;;;;;23.07;20.63;;;13.70;99.90;;;;;;5054687;28;20437;-64
2022/05/07 01:31:11;;;;;;;25.03;21.33;;;13.80;99.90;;;;;;5053992;28;20495;-64
2022/05/07 01:33:38;;;;;;;24.13;20.60;;;13.80;99.90;;;;;;5053600;28;20437;-66
2022/05/07 01:36:08;;;;;;;22.17;19.70;;;13.70;99.90;;;;;;5052703;28;20472;-64
2022/05/07 01:38:36;;;;;;;24.20;21.33;;;13.80;99.90;;;;;;5054228;28;20437;-64
2022/05/07 01:41:03;;;;;;;22.30;20.03;;;13.70;99.90;;;;;;5053767;28;20444;-65
2022/05/07 01:43:32;;;;;;;23.13;20.80;;;13.70;99.90;;;;;;5054334;28;20440;-64
2022/05/07 01:45:59;;;;;;;22.67;20.27;;;13.70;99.90;;;;;;5053473;28;20579;-64
2022/05/07 01:48:25;;;;;;;24.77;21.87;;;13.70;99.90;;;;;;5054505;28;20995;-64
2022/05/07 01:50:52;;;;;;;31.63;22.77;;;13.70;99.90;;;;;;5053714;28;20520;-64
2022/05/07 01:53:19;;;;;;;24.70;21.60;;;13.70;99.90;;;;;;5054305;28;20447;-64
2022/05/07 01:55:47;;;;;;;27.23;21.73;;;13.70;99.90;;;;;;5053206;28;20445;-64
2022/05/07 01:58:14;;;;;;;26.03;23.23;;;13.70;99.90;;;;;;5054050;28;20938;-65
2022/05/07 02:00:41;;;;;;;24.30;21.70;;;13.70;99.90;;;;;;5053018;28;20436;-65
2022/05/07 02:03:09;;;;;;;22.20;19.80;;;13.70;99.90;;;;;;5053434;28;20437;-65
2022/05/07 02:05:36;;;;;;;25.43;19.87;;;13.60;99.90;;;;;;5054023;28;20532;-64
2022/05/07 02:08:04;;;;;;;24.47;21.93;;;13.60;99.90;;;;;;5053141;28;21002;-65
2022/05/07 02:10:31;;;;;;;23.00;19.87;;;13.70;99.90;;;;;;5053579;28;20517;-64
2022/05/07 02:13:01;;;;;;;26.87;21.13;;;13.70;99.90;;;;;;5053982;28;20512;-65
2022/05/07 02:15:29;;;;;;;25.90;22.33;;;13.70;99.90;;;;;;5053213;28;20584;-65
2022/05/07 02:17:57;;;;;;;26.00;20.60;;;13.70;99.90;;;;;;5053954;28;20843;-64
2022/05/07 02:20:24;;;;;;;23.53;20.83;;;13.70;99.90;;;;;;5052902;28;20448;-64
2022/05/07 02:22:55;;;;;;;25.10;22.20;;;13.70;99.90;;;;;;5053467;28;20470;-64
2022/05/07 02:25:22;;;;;;;22.63;19.23;;;13.70;99.90;;;;;;5052541;28;20532;-64
2022/05/07 02:27:49;;;;;;;24.27;20.53;;;13.70;99.90;;;;;;5053635;28;20561;-64
2022/05/07 02:30:19;;;;;;;22.03;19.87;;;13.70;99.90;;;;;;5051652;28;20441;-64
2022/05/07 02:32:47;;;;;;;23.00;20.50;;;13.70;99.90;;;;;;5053263;28;20444;-65
2022/05/07 02:35:14;;;;;;;22.50;19.97;;;13.70;99.90;;;;;;5050766;28;20449;-65
2022/05/07 02:37:41;;;;;;;22.07;19.67;;;13.70;99.90;;;;;;5052901;28;20448;-65
2022/05/07 02:40:09;;;;;;;24.63;20.10;;;13.70;99.90;;;;;;5053290;28;20519;-65
2022/05/07 02:42:36;;;;;;;24.67;20.23;;;13.70;99.90;;;;;;5052512;28;20523;-64
2022/05/07 02:45:06;;;;;;;24.00;20.67;;;13.70;99.90;;;;;;5053540;28;20446;-64
2022/05/07 02:47:34;;;;;;;22.77;19.60;;;13.70;99.90;;;;;;5052311;28;20496;-64
2022/05/07 02:50:01;;;;;;;23.07;19.90;;;13.70;99.90;;;;;;5052491;28;20543;-64
2022/05/07 02:52:28;;;;;;;26.20;21.97;;;13.70;99.90;;;;;;5052888;28;20548;-65
2022/05/07 02:54:55;;;;;;;24.97;21.90;;;13.60;99.90;;;;;;5052608;28;20468;-64
2022/05/07 02:57:22;;;;;;;22.17;19.07;;;13.60;99.90;;;;;;5053245;28;20476;-64
2022/05/07 02:59:49;;;;;;;23.10;19.53;;;13.60;99.90;;;;;;5052285;28;20471;-66
2022/05/07 03:02:16;;;;;;;21.57;19.20;;;13.60;99.90;;;;;;5052941;28;20433;-65
2022/05/07 03:04:47;;;;;;;23.50;21.00;;;13.60;99.90;;;;;;5052711;28;20441;-64
2022/05/07 03:07:14;;;;;;;24.90;20.27;;;13.60;99.90;;;;;;5052600;28;20559;-64
2022/05/07 03:09:41;;;;;;;23.33;20.30;;;13.60;99.90;;;;;;5052894;28;20763;-64
2022/05/07 03:12:09;;;;;;;25.33;20.50;;;13.60;99.90;;;;;;5052096;28;20444;-64
2022/05/07 03:14:37;;;;;;;22.87;20.47;;;13.60;99.90;;;;;;5052769;28;20439;-64
2022/05/07 03:17:04;;;;;;;30.93;20.63;;;13.60;99.90;;;;;;5051899;28;20444;-64
2022/05/07 03:19:31;;;;;;;25.13;20.77;;;13.60;99.90;;;;;;5052899;28;20455;-64
2022/05/07 03:21:59;;;;;;;26.03;21.67;;;13.60;99.90;;;;;;5052168;28;20506;-64
2022/05/07 03:24:26;;;;;;;29.87;23.03;;;13.60;99.90;;;;;;5052778;28;20441;-66
2022/05/07 03:26:53;;;;;;;23.80;20.50;;;13.60;99.90;;;;;;5051890;28;20524;-64
2022/05/07 03:29:20;;;;;;;24.83;21.57;;;13.60;99.90;;;;;;5052863;28;20440;-65
2022/05/07 03:31:49;;;;;;;24.03;20.07;;;13.60;99.90;;;;;;5051853;28;20852;-65
2022/05/07 03:34:16;;;;;;;25.10;22.37;;;13.60;99.90;;;;;;5052329;28;20429;-65
2022/05/07 03:36:43;;;;;;;22.83;20.10;;;13.60;99.90;;;;;;5052781;28;20468;-65
2022/05/07 03:39:12;;;;;;;23.53;20.60;;;13.60;99.90;;;;;;5056783;28;20448;-64
2022/05/07 03:41:38;;;;;;;25.63;21.47;;;13.60;99.90;;;;;;5055543;28;20476;-64
2022/05/07 03:44:05;;;;;;;25.50;21.40;;;13.60;99.90;;;;;;5056567;28;20443;-64
2022/05/07 03:46:32;;;;;;;23.67;20.93;;;13.50;99.90;;;;;;5055697;28;20468;-64
2022/05/07 03:48:59;;;;;;;24.07;20.67;;;13.50;99.90;;;;;;5056509;28;20488;-64
2022/05/07 03:51:26;;;;;;;23.80;20.63;;;13.50;99.90;;;;;;5055779;28;20803;-64
2022/05/07 03:53:52;;;;;;;27.10;21.00;;;13.50;99.90;;;;;;5056364;28;20447;-65
2022/05/07 03:56:21;;;;;;;24.47;21.80;;;13.50;99.90;;;;;;5055732;28;20863;-64
2022/05/07 03:58:48;;;;;;;28.90;22.97;;;13.50;99.90;;;;;;5056537;28;20439;-64
2022/05/07 04:01:16;;;;;;;26.73;20.73;;;13.50;99.90;;;;;;5055576;28;20815;-64
2022/05/07 04:03:42;;;;;;;24.60;21.40;;;13.50;99.90;;;;;;5056544;28;20441;-64
2022/05/07 04:06:09;;;;;;;25.00;21.40;;;13.60;99.90;;;;;;5055308;28;20445;-64
2022/05/07 04:08:36;;;;;;;25.10;21.60;;;13.60;99.90;;;;;;5056289;28;20515;-64
2022/05/07 04:11:03;;;;;;;28.73;22.83;;;13.60;99.90;;;;;;5055616;28;20525;-64
2022/05/07 04:13:31;;;;;;;26.70;22.67;;;13.60;99.90;;;;;;5056445;28;20451;-64
2022/05/07 04:15:59;;;;;;;23.07;20.57;;;13.60;99.90;;;;;;5055496;28;20580;-64
2022/05/07 04:18:25;;;;;;;26.17;23.37;;;13.60;99.90;;;;;;5055949;28;20531;-64
2022/05/07 04:20:52;;;;;;;25.13;21.90;;;13.60;99.90;;;;;;5055261;28;20447;-64
2022/05/07 04:23:19;;;;;;;27.47;22.67;;;13.70;99.90;;;;;;5056254;28;20451;-64
2022/05/07 04:25:46;;;;;;;26.07;21.97;;;13.70;99.90;;;;;;5054709;28;20480;-64
2022/05/07 04:28:13;;;;;;;27.30;21.50;;;13.70;99.90;;;;;;5056120;28;20483;-64
2022/05/07 04:30:41;;;;;;;33.60;30.27;;;13.60;99.90;;;;;;5054889;28;20501;-64
2022/05/07 04:33:08;;;;;;;26.73;23.80;;;13.70;99.90;;;;;;5055499;28;20524;-65
2022/05/07 04:35:35;;;;;;;29.17;24.43;;;13.70;99.90;;;;;;5055263;28;20520;-64
2022/05/07 04:38:02;;;;;;;29.13;22.23;;;13.70;99.90;;;;;;5055926;28;20475;-65
2022/05/07 04:40:29;;;;;;;23.97;20.50;;;13.70;99.90;;;;;;5054849;28;20544;-64
2022/05/07 04:42:56;;;;;;;27.63;23.80;;;13.70;99.90;;;;;;5055855;28;20436;-64
2022/05/07 04:45:24;;;;;;;30.03;24.67;;;13.70;99.90;;;;;;5054874;28;20465;-66
2022/05/07 04:47:53;;;;;;;27.40;24.33;;;13.80;99.90;;;;;;5055230;28;20480;-64
2022/05/07 04:50:20;;;;;;;27.83;24.83;;;13.80;99.90;;;;;;5054014;28;20524;-64
2022/05/07 04:52:46;;;;;;;30.40;26.47;;;13.80;99.90;;;;;;5055462;28;20531;-64
2022/05/07 04:55:14;;;;;;;26.00;21.80;;;13.80;99.90;;;;;;5054854;28;20520;-64
2022/05/07 04:57:41;;;;;;;26.57;22.97;;;13.90;99.90;;;;;;5055023;28;20483;-65
2022/05/07 05:00:09;;;;;;;30.97;25.20;;;13.90;99.90;;;;;;5054559;28;20583;-65
2022/05/07 05:02:36;;;;;;;26.43;22.60;;;13.90;99.90;;;;;;5054656;28;20919;-64
2022/05/07 05:05:05;;;;;;;25.43;22.43;;;14.00;99.90;;;;;;5054965;28;20476;-64
2022/05/07 05:07:32;;;;;;;24.63;21.80;;;13.90;99.90;;;;;;5055448;28;20486;-64
2022/05/07 05:09:59;;;;;;;36.13;24.20;;;14.00;99.90;;;;;;5054471;28;20433;-64
2022/05/07 05:12:26;;;;;;;30.90;24.33;;;14.00;99.90;;;;;;5055289;28;20793;-64
2022/05/07 05:15:06;;;;;;;30.50;25.93;;;14.10;99.90;;;;;;5054306;28;20516;-64
2022/05/07 05:17:34;;;;;;;27.47;21.93;;;14.10;99.90;;;;;;5055051;28;20452;-64
2022/05/07 05:20:01;;;;;;;32.30;24.30;;;14.10;99.90;;;;;;5054292;28;20865;-65
2022/05/07 05:22:30;;;;;;;28.57;22.50;;;14.20;99.90;;;;;;5054152;28;20627;-64
2022/05/07 05:24:57;;;;;;;28.90;24.43;;;14.20;99.90;;;;;;5055110;28;20441;-64
2022/05/07 05:27:24;;;;;;;31.57;24.73;;;14.30;99.90;;;;;;5053798;28;20440;-67
2022/05/07 05:29:51;;;;;;;32.10;26.60;;;14.30;99.90;;;;;;5053475;28;21003;-65
2022/05/07 05:32:18;;;;;;;30.13;23.63;;;14.30;99.90;;;;;;5054113;28;20441;-65
2022/05/07 05:34:49;;;;;;;32.07;25.00;;;14.30;99.90;;;;;;5054965;28;20523;-64
2022/05/07 05:37:17;;;;;;;29.57;24.43;;;14.30;99.90;;;;;;5034418;28;20923;-64
2022/05/07 05:39:46;;;;;;;25.57;20.83;;;14.30;99.90;;;;;;5034591;28;20789;-64
2022/05/07 05:42:13;;;;;;;30.50;24.73;;;14.30;99.90;;;;;;5053333;28;20503;-65
2022/05/07 05:44:41;;;;;;;32.60;23.33;;;14.30;99.90;;;;;;5053310;28;20437;-65
2022/05/07 05:47:10;;;;;;;31.00;25.47;;;14.30;99.90;;;;;;5052933;28;21024;-66
2022/05/07 05:49:37;;;;;;;28.70;22.73;;;14.30;99.90;;;;;;5053290;28;20566;-66
2022/05/07 05:52:05;;;;;;;32.47;24.93;;;14.30;99.90;;;;;;5053858;28;20429;-64
2022/05/07 05:54:32;;;;;;;28.20;24.17;;;14.30;99.90;;;;;;5053814;28;20445;-65
2022/05/07 05:57:01;;;;;;;31.97;24.50;;;14.30;99.90;;;;;;5052370;28;20516;-64
2022/05/07 05:59:28;;;;;;;27.57;22.80;;;14.30;99.90;;;;;;5053002;28;20532;-64
2022/05/07 06:01:55;;;;;;;30.10;23.13;;;14.30;99.90;;;;;;5053234;28;20532;-64
2022/05/07 06:04:22;;;;;;;31.67;24.70;;;14.30;99.90;;;;;;5054155;28;20532;-65
2022/05/07 06:06:49;;;;;;;31.77;24.93;;;14.30;99.90;;;;;;5052076;28;20835;-64
2022/05/07 06:09:16;;;;;;;33.57;26.60;;;14.40;99.90;;;;;;5053738;28;20538;-64
2022/05/07 06:11:43;;;;;;;30.87;25.80;;;14.40;99.90;;;;;;5052772;28;20445;-64
2022/05/07 06:14:12;;;;;;;30.17;25.77;;;14.40;99.90;;;;;;5053571;28;20437;-64
2022/05/07 06:16:39;;;;;;;28.00;23.50;;;14.40;99.90;;;;;;5052087;28;20434;-65
2022/05/07 06:19:07;;;;;;;31.53;28.10;;;14.50;99.90;;;;;;5053929;28;20860;-65
2022/05/07 06:21:34;;;;;;;36.73;29.37;;;14.50;99.90;;;;;;5052809;28;20452;-65
2022/05/07 06:27:28;;;;;;;31.50;25.00;;;14.50;99.90;;;;;;5053697;28;20498;-65
2022/05/07 06:29:40;;;;;;;33.67;25.10;;;14.60;99.90;;;;;;5053824;28;20475;-65
2022/05/07 06:32:08;;;;;;;29.00;21.37;;;14.60;99.90;;;;;;5052166;28;20536;-65
2022/05/07 06:34:35;;;;;;;29.03;23.00;;;14.60;99.80;;;;;;5053656;28;20437;-64
2022/05/07 06:37:02;;;;;;;29.93;23.73;;;14.60;99.70;;;;;;5051309;28;20486;-65
2022/05/07 06:39:29;;;;;;;29.30;23.57;;;14.60;99.50;;;;;;5053070;28;20440;-64
2022/05/07 06:41:56;;;;;;;28.60;21.77;;;14.60;99.50;;;;;;5053203;28;20519;-64
2022/05/07 06:44:23;;;;;;;28.43;22.73;;;14.60;99.40;;;;;;5052690;28;20445;-64
2022/05/07 06:46:51;;;;;;;27.70;20.77;;;14.60;99.30;;;;;;5052994;28;20460;-64
2022/05/07 06:49:18;;;;;;;27.50;22.33;;;14.60;99.10;;;;;;5052109;28;20481;-64
2022/05/07 06:51:45;;;;;;;29.67;23.97;;;14.50;98.90;;;;;;5050992;28;20524;-65
2022/05/07 06:54:12;;;;;;;30.90;23.00;;;14.50;98.90;;;;;;5051797;28;20441;-64
2022/05/07 06:56:39;;;;;;;31.00;21.83;;;14.50;99.00;;;;;;5053311;28;20448;-65
2022/05/07 06:59:06;;;;;;;28.07;22.37;;;14.50;98.90;;;;;;5052028;28;20441;-65
2022/05/07 07:01:33;;;;;;;31.70;24.43;;;14.50;98.80;;;;;;5053211;28;20444;-64
2022/05/07 07:04:01;;;;;;;30.10;22.13;;;14.50;98.90;;;;;;5049334;28;20441;-64
2022/05/07 07:06:28;;;;;;;28.83;21.53;;;14.40;98.90;;;;;;5051237;28;20947;-64
2022/05/07 07:08:56;;;;;;;28.80;21.90;;;14.40;98.90;;;;;;5050522;28;20487;-65
2022/05/07 07:11:24;;;;;;;32.30;23.73;;;14.40;99.00;;;;;;5051527;28;20490;-64
2022/05/07 07:13:52;;;;;;;28.23;22.17;;;14.40;98.90;;;;;;5050291;28;20943;-65
2022/05/07 07:16:19;;;;;;;31.50;23.63;;;14.40;99.10;;;;;;5047289;28;20433;-64
2022/05/07 07:18:46;;;;;;;29.40;21.90;;;14.50;99.30;;;;;;5050394;28;20669;-64
2022/05/07 07:21:15;;;;;;;32.20;24.00;;;14.50;99.30;;;;;;5051325;28;20520;-65
2022/05/07 07:23:42;;;;;;;35.87;25.87;;;14.50;99.30;;;;;;5050197;28;20437;-65
2022/05/07 07:26:09;;;;;;;37.60;26.30;;;14.50;99.50;;;;;;5051153;28;20848;-64
2022/05/07 07:28:36;;;;;;;31.83;24.33;;;14.60;99.70;;;;;;5050036;28;20832;-64
2022/05/07 07:31:03;;;;;;;36.87;25.30;;;14.60;99.90;;;;;;5051088;28;20452;-64
2022/05/07 07:33:30;;;;;;;37.20;26.20;;;14.70;99.90;;;;;;5049724;28;20848;-64
2022/05/07 07:35:57;;;;;;;32.13;26.37;;;14.80;99.90;;;;;;5050942;28;20540;-65
2022/05/07 07:38:25;;;;;;;38.27;30.13;;;14.90;99.90;;;;;;5049681;28;20552;-64
2022/05/07 07:40:53;;;;;;;34.00;26.10;;;14.90;99.70;;;;;;5050860;28;20441;-64
2022/05/07 07:43:20;;;;;;;32.97;25.77;;;15.00;99.50;;;;;;5049927;28;20440;-67
2022/05/07 07:48:32;;;;;;;30.00;24.27;;;15.20;98.90;;;;;;5049218;28;20472;-65
2022/05/07 07:50:59;;;;;;;30.87;24.80;;;15.20;99.10;;;;;;5046895;28;20464;-64
2022/05/07 07:53:27;;;;;;;33.20;25.70;;;15.30;98.50;;;;;;5050913;28;20528;-64
2022/05/07 07:55:54;;;;;;;28.50;23.10;;;15.30;98.30;;;;;;5050579;28;20516;-64
2022/05/07 07:58:21;;;;;;;27.70;23.30;;;15.20;98.10;;;;;;5048864;28;20441;-65
2022/05/07 08:00:48;;;;;;;28.67;21.70;;;15.20;97.80;;;;;;5048897;28;20437;-65
2022/05/07 08:03:16;;;;;;;30.10;23.30;;;15.20;97.70;;;;;;5050314;28;20477;-65
2022/05/07 08:05:44;;;;;;;26.17;21.97;;;15.10;97.80;;;;;;5050008;28;20475;-64
2022/05/07 08:13:44;;;;;;;30.20;23.60;;;15.00;97.70;;;;;;5048175;28;20428;-64
2022/05/07 08:16:11;;;;;;;35.93;26.70;;;15.00;98.00;;;;;;5049706;28;20535;-67
2022/05/07 08:18:39;;;;;;;28.90;22.73;;;15.10;98.70;;;;;;5050244;28;20455;-64
2022/05/07 08:21:07;;;;;;;29.80;23.73;;;15.10;98.60;;;;;;5047934;28;20935;-65
2022/05/07 08:23:34;;;;;;;27.40;21.43;;;15.10;98.50;;;;;;5052300;28;20425;-64
2022/05/07 08:26:04;;;;;;;25.33;20.90;;;15.10;98.70;;;;;;5053791;28;20483;-64
2022/05/07 08:28:32;;;;;;;33.73;23.27;;;15.10;98.60;;;;;;5049014;28;20539;-65
2022/05/07 08:31:00;;;;;;;27.20;21.70;;;15.10;98.50;;;;;;5052591;28;20854;-65
2022/05/07 08:33:27;;;;;;;34.60;23.37;;;15.10;98.50;;;;;;5053902;28;20440;-69
2022/05/07 08:35:54;;;;;;;31.97;24.17;;;15.10;98.50;;;;;;5053913;28;20515;-64
2022/05/07 08:38:21;;;;;;;27.80;21.53;;;15.10;98.50;;;;;;5054248;28;20523;-65
2022/05/07 08:40:48;;;;;;;28.57;22.00;;;15.20;98.60;;;;;;5053984;28;20522;-64
2022/05/07 08:43:17;;;;;;;26.17;22.47;;;15.20;98.70;;;;;;5054103;28;20516;-65
2022/05/07 08:45:45;;;;;;;29.50;22.30;;;15.20;99.00;;;;;;5049527;28;20421;-65
2022/05/07 08:48:12;;;;;;;31.60;23.40;;;15.20;98.90;;;;;;5054193;28;20433;-64
2022/05/07 08:50:40;;;;;;;31.33;21.43;;;15.20;98.90;;;;;;5053556;28;20578;-64
2022/05/07 08:53:09;;;;;;;35.70;24.47;;;15.20;98.90;;;;;;5050608;28;20938;-65
2022/05/07 08:55:36;;;;;;;28.87;23.63;;;15.30;98.80;;;;;;5042309;28;20810;-64
2022/05/07 08:58:03;;;;;;;30.30;23.50;;;15.30;98.60;;;;;;5052523;28;20795;-64
2022/05/07 09:00:33;;;;;;;29.10;22.53;;;15.30;98.70;;;;;;5047021;28;20847;-65
2022/05/07 09:03:03;;;;;;;27.90;22.13;;;15.40;98.70;;;;;;5052105;28;20432;-65
2022/05/07 09:05:35;;;;;;;29.60;21.90;;;15.40;98.60;;;;;;5048402;28;20774;-64
2022/05/07 09:08:04;;;;;;;29.33;24.50;;;15.30;98.50;;;;;;5052349;28;21007;-64
2022/05/07 09:10:33;;;;;;;30.40;24.10;;;15.40;98.60;;;;;;5052589;28;20484;-65
2022/05/07 09:13:11;;;;;;;31.50;24.20;;;15.40;98.60;;;;;;5053508;28;20820;-64
2022/05/07 09:15:49;;;;;;;29.70;25.77;;;15.40;98.50;;;;;;5052531;28;20525;-66
2022/05/07 09:18:18;;;;;;;29.53;23.67;;;15.30;98.60;;;;;;5050669;28;20926;-65
2022/05/07 09:20:45;;;;;;;29.60;23.10;;;15.40;98.90;;;;;;5052986;28;20443;-65
2022/05/07 09:23:12;;;;;;;29.87;23.90;;;15.40;98.90;;;;;;5052559;28;20441;-65
2022/05/07 09:25:46;;;;;;;31.43;25.07;;;15.40;99.00;;;;;;5052636;28;20977;-64
2022/05/07 09:28:13;;;;;;;30.27;24.53;;;15.40;98.90;;;;;;5053153;28;20763;-65
2022/05/07 09:30:44;;;;;;;31.37;24.47;;;15.40;98.90;;;;;;5052042;28;20575;-66
2022/05/07 09:33:11;;;;;;;29.57;23.70;;;15.40;99.00;;;;;;5052619;28;20433;-65
2022/05/07 09:35:49;;;;;;;35.47;25.50;;;15.50;99.20;;;;;;5052138;28;20425;-65
2022/05/07 09:38:24;;;;;;;31.23;25.20;;;15.50;99.20;;;;;;5053079;28;20444;-64
2022/05/07 09:40:51;;;;;;;30.43;24.93;;;15.60;99.30;;;;;;5052133;28;20934;-64
2022/05/07 09:43:18;;;;;;;29.60;22.97;;;15.70;99.10;;;;;;5052794;28;20452;-66
2022/05/07 09:45:47;;;;;;;27.63;22.30;;;15.70;98.80;;;;;;5051868;28;20437;-64
2022/05/07 09:48:14;;;;;;;29.10;23.50;;;15.70;98.70;;;;;;5052452;28;20444;-65
2022/05/07 09:50:44;;;;;;;28.87;23.70;;;15.80;98.80;;;;;;5051721;28;20469;-65
2022/05/07 09:58:42;;;;;;;27.77;22.07;;;16.10;98.50;;;;;;5050413;28;20944;-65
2022/05/07 10:01:31;;;;;;;26.57;22.00;;;16.20;98.50;;;;;;5051710;28;20513;-65
2022/05/07 10:04:52;;;;;;;25.47;21.37;;;16.30;98.60;;;;;;5050244;28;20498;-67
2022/05/07 10:07:31;;;;;;;25.30;20.50;;;16.50;98.80;;;;;;4987119;28;20432;-66
2022/05/07 10:10:08;;;;;;;19.87;16.80;;;16.80;98.60;;;;;;5047713;28;20512;-65
2022/05/07 10:12:36;;;;;;;18.83;16.10;;;16.90;97.70;;;;;;5051917;28;20942;-64
2022/05/07 10:15:07;;;;;;;14.77;13.23;;;17.10;96.70;;;;;;5051680;28;20516;-65
2022/05/07 10:17:36;;;;;;;16.50;14.47;;;17.10;95.80;;;;;;5051720;28;20779;-64
2022/05/07 10:20:08;;;;;;;21.83;18.97;;;17.20;95.70;;;;;;5051698;28;20966;-64
2022/05/07 10:22:35;;;;;;;15.57;13.97;;;17.40;95.50;;;;;;5046870;28;20907;-65
2022/05/07 10:25:05;;;;;;;14.53;13.00;;;17.50;94.80;;;;;;5051848;28;20513;-64
2022/05/07 10:27:33;;;;;;;13.43;12.13;;;17.60;92.90;;;;;;5050915;28;20527;-65
2022/05/07 10:30:06;;;;;;;11.90;10.70;;;17.50;92.70;;;;;;5050640;28;21030;-64
2022/05/07 10:32:46;;;;;;;11.13;10.07;;;17.50;93.10;;;;;;5051214;28;20936;-65
2022/05/07 10:35:38;;;;;;;13.33;12.00;;;17.50;93.50;;;;;;5050444;28;20443;-66
2022/05/07 10:38:09;;;;;;;14.43;12.90;;;17.50;93.70;;;;;;5050775;28;20464;-65
2022/05/07 10:40:36;;;;;;;23.17;20.43;;;17.40;93.50;;;;;;5051204;28;20848;-64
2022/05/07 10:43:04;;;;;;;22.17;19.77;;;17.40;93.80;;;;;;5051373;28;20871;-64
2022/05/07 10:45:41;;;;;;;16.17;14.53;;;17.40;93.60;;;;;;5050253;28;20452;-65
2022/05/07 10:48:18;;;;;;;13.43;12.03;;;17.50;93.30;;;;;;5051123;28;20432;-65
2022/05/07 10:50:53;;;;;;;12.37;10.60;;;17.40;92.80;;;;;;5050238;28;20479;-65
2022/05/07 10:53:20;;;;;;;13.27;11.87;;;17.30;92.80;;;;;;5051050;28;20432;-64
2022/05/07 10:55:50;;;;;;;14.03;12.63;;;17.20;93.00;;;;;;5049925;28;20918;-65
2022/05/07 10:58:26;;;;;;;14.10;12.60;;;17.20;93.50;;;;;;5047666;28;20561;-66
2022/05/07 11:00:54;;;;;;;12.40;11.10;;;17.20;93.90;;;;;;5051047;28;20511;-64
2022/05/07 11:03:27;;;;;;;12.27;10.97;;;17.10;93.40;;;;;;5051109;28;20466;-65
2022/05/07 11:06:01;;;;;;;12.17;10.97;;;17.10;93.30;;;;;;5048297;28;20451;-64
2022/05/07 11:08:30;;;;;;;11.80;9.97;;;17.10;93.70;;;;;;5051159;28;20449;-65
2022/05/07 11:11:09;;;;;;;14.43;10.00;;;17.00;93.30;;;;;;5050739;28;20567;-65
2022/05/07 11:13:46;;;;;;;6.60;5.83;;;17.00;93.60;;;;;;5050927;28;20433;-64
2022/05/07 11:16:16;;;;;;;5.40;4.90;;;17.00;93.20;;;;;;5047310;28;20486;-64
2022/05/07 11:18:47;;;;;;;6.37;5.73;;;16.90;92.50;;;;;;5050226;28;20428;-65
2022/05/07 11:21:17;;;;;;;6.17;5.57;;;16.90;92.60;;;;;;5050143;28;20445;-65
2022/05/07 11:23:44;;;;;;;6.90;6.20;;;16.90;92.20;;;;;;5050678;28;20455;-65
2022/05/07 11:26:13;;;;;;;5.63;5.10;;;17.00;92.90;;;;;;5050861;28;20923;-64
2022/05/07 11:28:43;;;;;;;5.17;4.67;;;17.20;94.00;;;;;;5050495;28;20515;-66
2022/05/07 11:31:10;;;;;;;5.20;4.57;;;17.40;93.70;;;;;;5050882;28;20492;-64
2022/05/07 11:33:38;;;;;;;4.83;3.90;;;17.40;93.50;;;;;;5050925;28;20528;-67
2022/05/07 11:36:08;;;;;;;4.17;3.77;;;17.40;92.10;;;;;;5051201;28;20447;-64
2022/05/07 11:38:36;;;;;;;4.60;4.20;;;17.40;92.00;;;;;;5051054;28;20433;-64
2022/05/07 11:41:14;;;;;;;5.03;4.53;;;17.50;92.20;;;;;;5051203;28;20442;-64
2022/05/07 11:46:25;;;;;;;5.93;5.33;;;17.90;93.30;;;;;;5050786;28;20957;-64
2022/05/07 11:48:53;;;;;;;5.73;5.13;;;18.10;92.60;;;;;;5050613;28;20915;-65
2022/05/07 11:51:27;;;;;;;5.77;5.27;;;18.30;92.00;;;;;;5050944;28;20587;-65
2022/05/07 11:53:57;;;;;;;6.20;5.60;;;18.30;90.30;;;;;;5051098;28;20479;-65
2022/05/07 11:56:24;;;;;;;5.43;4.90;;;18.30;90.50;;;;;;5050610;28;20861;-65
2022/05/07 11:58:53;;;;;;;7.40;5.03;;;18.50;91.10;;;;;;5054413;28;20440;-65
2022/05/07 12:01:21;;;;;;;5.63;4.67;;;18.70;89.20;;;;;;5054673;28;20451;-64
2022/05/07 12:03:49;;;;;;;8.30;5.43;;;18.80;86.20;;;;;;5054536;28;20530;-65
2022/05/07 12:06:30;;;;;;;5.83;5.30;;;18.80;85.50;;;;;;5050938;28;20464;-64
2022/05/07 12:08:58;;;;;;;6.50;5.67;;;18.70;83.20;;;;;;5053428;28;20525;-65
2022/05/07 12:11:26;;;;;;;6.20;5.60;;;18.70;83.90;;;;;;5054151;28;20534;-64
2022/05/07 12:13:54;;;;;;;5.87;5.00;;;18.70;86.00;;;;;;5053701;28;20969;-65
2022/05/07 12:19:24;;;;;;;5.97;5.37;;;18.60;85.00;;;;;;5012625;28;20519;-65
2022/05/07 12:30:07;;;;;;;6.70;6.00;;;18.40;82.20;;;;;;5054085;28;20514;-65
2022/05/07 12:32:33;;;;;;;6.67;5.97;;;18.40;82.30;;;;;;5053706;28;20477;-64
2022/05/07 12:35:00;;;;;;;6.73;5.77;;;18.40;83.80;;;;;;5053215;28;20508;-65
2022/05/07 12:37:29;;;;;;;6.70;6.00;;;18.40;85.20;;;;;;5053823;28;20472;-64
2022/05/07 12:39:57;;;;;;;6.60;6.00;;;18.50;81.70;;;;;;5054347;28;20441;-64
2022/05/07 12:42:25;;;;;;;7.20;6.50;;;18.40;80.10;;;;;;5053342;28;20441;-66
2022/05/07 12:44:52;;;;;;;8.07;6.90;;;18.40;81.20;;;;;;5053820;28;20452;-65
2022/05/07 12:47:18;;;;;;;7.60;6.37;;;18.40;79.70;;;;;;5052913;28;20567;-64
2022/05/07 12:49:45;;;;;;;8.07;6.77;;;18.20;81.00;;;;;;5053820;28;20524;-64
2022/05/07 12:52:13;;;;;;;9.23;6.90;;;18.00;82.70;;;;;;5053344;28;20441;-67
2022/05/07 12:54:41;;;;;;;6.80;6.20;;;17.90;84.00;;;;;;5049506;28;20461;-64
2022/05/07 12:57:09;;;;;;;6.73;5.97;;;17.80;84.60;;;;;;5052830;28;21417;-64
2022/05/07 12:59:37;;;;;;;7.77;7.07;;;17.70;84.70;;;;;;5051373;28;20483;-64
2022/05/07 13:02:06;;;;;;;7.33;6.43;;;17.80;86.80;;;;;;5053083;28;20436;-65
2022/05/07 13:04:34;;;;;;;8.47;7.13;;;17.90;86.90;;;;;;5053147;28;20443;-64
2022/05/07 13:07:01;;;;;;;7.23;6.10;;;18.00;85.80;;;;;;5053567;28;20498;-64
2022/05/07 13:09:28;;;;;;;7.93;7.03;;;18.10;87.10;;;;;;5052603;28;20520;-66
2022/05/07 13:11:57;;;;;;;7.43;6.73;;;18.20;87.10;;;;;;5053068;28;20563;-65